createdAt,value
2018-08-07T00:01:33.317Z,99.90
2018-08-07T00:04:01.412Z,99.90
2018-08-07T00:06:31.381Z,99.90
2018-08-07T00:08:59.425Z,99.90
2018-08-07T00:11:27.517Z,99.90
2018-08-07T00:13:55.516Z,99.90
2018-08-07T00:16:23.528Z,99.90
2018-08-07T00:18:51.670Z,99.90
2018-08-07T00:21:19.694Z,1.00
2018-08-07T00:23:47.750Z,1.00
2018-08-07T00:26:15.757Z,1.00
2018-08-07T00:28:43.927Z,1.00
2018-08-07T00:31:11.914Z,1.00
2018-08-07T00:33:39.933Z,99.90
2018-08-07T00:36:07.921Z,1.00
2018-08-07T00:38:35.941Z,1.00
2018-08-07T00:41:03.974Z,1.00
2018-08-07T00:43:32.693Z,1.00
2018-08-07T00:46:00.709Z,1.00
2018-08-07T00:48:28.730Z,1.00
2018-08-07T00:50:56.752Z,1.00
2018-08-07T00:53:24.763Z,1.00
2018-08-07T00:55:52.764Z,1.00
2018-08-07T00:58:20.785Z,1.00
2018-08-07T01:00:48.790Z,1.00
2018-08-07T01:03:16.809Z,99.90
2018-08-07T01:05:44.811Z,99.90
2018-08-07T01:08:12.819Z,99.90
2018-08-07T01:10:40.823Z,1.00
2018-08-07T01:13:08.831Z,1.00
2018-08-07T01:15:36.828Z,1.00
2018-08-07T01:18:05.610Z,99.90
2018-08-07T01:20:33.641Z,99.90
2018-08-07T01:23:01.636Z,99.90
2018-08-07T01:25:29.871Z,99.90
2018-08-07T01:27:57.869Z,99.90
2018-08-07T01:30:27.842Z,99.90
2018-08-07T01:32:56.172Z,99.90
2018-08-07T01:35:24.785Z,99.90
2018-08-07T01:38:03.485Z,99.90
2018-08-07T01:40:31.512Z,91.90
2018-08-07T01:42:59.531Z,77.10
2018-08-07T01:45:27.554Z,65.80
2018-08-07T01:47:55.555Z,99.90
2018-08-07T01:50:23.599Z,99.90
2018-08-07T01:52:51.628Z,99.90
2018-08-07T01:55:24.654Z,99.90
2018-08-07T01:57:52.887Z,99.90
2018-08-07T02:00:21.002Z,99.90
2018-08-07T02:02:49.473Z,99.90
2018-08-07T02:05:17.546Z,99.90
2018-08-07T02:07:45.588Z,99.90
2018-08-07T02:10:15.726Z,99.90
2018-08-07T02:12:43.750Z,82.70
2018-08-07T02:15:12.534Z,11.00
2018-08-07T02:17:40.562Z,1.00
2018-08-07T02:20:11.486Z,1.00
2018-08-07T02:22:40.206Z,1.00
2018-08-07T02:25:09.782Z,99.90
2018-08-07T02:27:37.826Z,99.90
2018-08-07T02:30:07.669Z,99.90
2018-08-07T02:32:35.978Z,99.90
2018-08-07T02:35:04.099Z,99.90
2018-08-07T02:37:32.119Z,99.90
2018-08-07T02:40:00.156Z,99.90
2018-08-07T02:42:28.183Z,99.90
2018-08-07T02:44:56.227Z,99.90
2018-08-07T02:47:24.255Z,99.90
2018-08-07T02:49:52.485Z,99.90
2018-08-07T02:52:20.525Z,99.90
2018-08-07T02:54:48.562Z,99.90
2018-08-07T02:59:44.459Z,99.90
2018-08-07T03:02:12.522Z,99.90
2018-08-07T03:04:40.807Z,99.90
2018-08-07T03:07:08.831Z,99.90
2018-08-07T03:09:36.867Z,99.90
2018-08-07T03:12:04.986Z,99.90
2018-08-07T03:14:33.022Z,99.90
2018-08-07T03:17:01.038Z,99.90
2018-08-07T03:19:29.052Z,99.90
2018-08-07T03:21:57.070Z,99.90
2018-08-07T03:24:25.082Z,99.90
2018-08-07T03:26:53.159Z,99.90
2018-08-07T03:29:21.166Z,99.90
2018-08-07T03:31:49.236Z,99.90
2018-08-07T03:34:17.253Z,99.90
2018-08-07T03:36:45.275Z,99.90
2018-08-07T03:39:14.253Z,99.90
2018-08-07T03:41:42.290Z,99.90
2018-08-07T03:44:10.858Z,99.90
2018-08-07T03:46:39.175Z,99.90
2018-08-07T03:49:08.034Z,99.90
2018-08-07T03:51:36.008Z,99.90
2018-08-07T03:54:04.080Z,54.10
2018-08-07T03:56:32.099Z,14.90
2018-08-07T03:59:00.133Z,1.00
2018-08-07T04:01:28.136Z,1.00
2018-08-07T04:03:56.210Z,99.90
2018-08-07T04:06:24.239Z,1.00
2018-08-07T04:08:52.276Z,1.00
2018-08-07T04:11:20.306Z,1.00
2018-08-07T04:13:48.319Z,99.90
2018-08-07T04:16:16.345Z,99.90
2018-08-07T04:18:44.342Z,99.90
2018-08-07T04:21:12.359Z,1.00
2018-08-07T04:23:40.371Z,1.00
2018-08-07T04:26:08.448Z,99.90
2018-08-07T04:28:36.423Z,29.50
2018-08-07T04:31:04.446Z,99.90
2018-08-07T04:33:32.485Z,19.20
2018-08-07T04:36:00.568Z,1.00
2018-08-07T04:38:28.566Z,99.90
2018-08-07T04:40:56.590Z,1.00
2018-08-07T04:43:24.630Z,99.90
2018-08-07T04:45:52.714Z,99.90
2018-08-07T04:48:20.983Z,7.40
2018-08-07T04:50:48.992Z,1.00
2018-08-07T04:53:16.994Z,1.00
2018-08-07T04:55:44.998Z,1.00
2018-08-07T04:58:13.002Z,1.00
2018-08-07T05:00:41.038Z,1.00
2018-08-07T05:03:09.039Z,1.00
2018-08-07T05:05:37.059Z,1.00
2018-08-07T05:08:05.085Z,1.00
2018-08-07T05:10:33.290Z,1.00
2018-08-07T05:13:01.291Z,1.00
2018-08-07T05:15:29.298Z,1.00
2018-08-07T05:17:57.319Z,1.00
2018-08-07T05:20:25.331Z,1.00
2018-08-07T05:22:53.332Z,1.00
2018-08-07T05:25:21.344Z,1.00
2018-08-07T05:27:49.403Z,1.00
2018-08-07T05:30:17.542Z,1.00
2018-08-07T05:32:45.571Z,99.90
2018-08-07T05:35:14.586Z,99.90
2018-08-07T05:37:42.704Z,99.90
2018-08-07T05:40:11.282Z,99.90
2018-08-07T05:42:39.791Z,99.90
2018-08-07T05:45:09.402Z,99.90
2018-08-07T05:47:37.510Z,99.90
2018-08-07T05:50:08.253Z,99.90
2018-08-07T05:52:36.328Z,99.90
2018-08-07T05:55:05.028Z,99.90
2018-08-07T05:57:33.006Z,99.90
2018-08-07T06:00:01.018Z,99.90
2018-08-07T06:02:29.038Z,99.90
2018-08-07T06:04:57.044Z,99.90
2018-08-07T06:07:25.073Z,99.90
2018-08-07T06:09:53.078Z,99.90
2018-08-07T06:12:21.113Z,99.90
2018-08-07T06:14:49.162Z,99.90
2018-08-07T06:17:17.254Z,99.90
2018-08-07T06:19:45.275Z,99.90
2018-08-07T06:22:13.306Z,99.90
2018-08-07T06:24:41.395Z,99.90
2018-08-07T06:27:09.418Z,99.90
2018-08-07T06:29:37.477Z,99.90
2018-08-07T06:32:05.743Z,99.90
2018-08-07T06:34:33.754Z,99.90
2018-08-07T06:39:29.630Z,99.90
2018-08-07T06:41:57.668Z,99.90
2018-08-07T06:44:25.709Z,99.90
2018-08-07T06:46:53.740Z,99.90
2018-08-07T06:49:21.766Z,99.90
2018-08-07T06:51:56.415Z,99.90
2018-08-07T06:54:24.454Z,99.90
2018-08-07T06:56:52.499Z,99.90
2018-08-07T06:59:20.559Z,99.90
2018-08-07T07:01:48.587Z,99.90
2018-08-07T07:04:16.660Z,99.90
2018-08-07T07:06:44.682Z,99.90
2018-08-07T07:09:13.113Z,99.90
2018-08-07T07:11:41.129Z,99.90
2018-08-07T07:14:09.180Z,99.90
2018-08-07T07:16:37.347Z,99.90
2018-08-07T07:19:05.407Z,99.90
2018-08-07T07:21:33.446Z,99.90
2018-08-07T07:24:01.467Z,99.90
2018-08-07T07:26:29.467Z,99.90
2018-08-07T07:28:57.503Z,99.90
2018-08-07T07:31:25.502Z,99.90
2018-08-07T07:33:53.518Z,99.90
2018-08-07T07:36:21.545Z,99.90
2018-08-07T07:38:49.578Z,99.90
2018-08-07T07:41:17.614Z,99.90
2018-08-07T07:43:45.647Z,99.90
2018-08-07T07:46:13.674Z,99.90
2018-08-07T07:48:41.707Z,99.90
2018-08-07T07:51:09.713Z,99.90
2018-08-07T07:53:37.726Z,99.90
2018-08-07T07:56:05.743Z,99.90
2018-08-07T07:58:33.767Z,99.90
2018-08-07T08:01:01.791Z,99.90
2018-08-07T08:03:29.822Z,99.90
2018-08-07T08:05:57.861Z,99.90
2018-08-07T08:08:25.875Z,99.90
2018-08-07T08:10:53.910Z,99.90
2018-08-07T08:13:21.946Z,99.90
2018-08-07T08:15:49.975Z,99.90
2018-08-07T08:18:18.004Z,99.90
2018-08-07T08:20:46.034Z,99.90
2018-08-07T08:23:14.078Z,99.90
2018-08-07T08:25:42.114Z,99.90
2018-08-07T08:28:10.138Z,99.90
2018-08-07T08:30:38.176Z,99.90
2018-08-07T08:33:06.240Z,99.90
2018-08-07T08:35:34.309Z,99.90
2018-08-07T08:38:02.341Z,99.90
2018-08-07T08:40:30.395Z,99.90
2018-08-07T08:42:58.410Z,99.90
2018-08-07T08:45:26.849Z,99.90
2018-08-07T08:47:57.160Z,99.90
2018-08-07T08:50:25.152Z,99.90
2018-08-07T08:52:53.188Z,99.90
2018-08-07T08:55:21.266Z,99.90
2018-08-07T08:57:49.300Z,99.90
2018-08-07T09:00:29.135Z,99.90
2018-08-07T09:02:58.561Z,99.90
2018-08-07T09:05:26.595Z,99.90
2018-08-07T09:07:54.650Z,99.90
2018-08-07T09:10:24.444Z,99.90
2018-08-07T09:12:53.020Z,99.90
2018-08-07T09:15:21.070Z,99.90
2018-08-07T09:17:49.131Z,99.90
2018-08-07T09:20:23.108Z,99.90
2018-08-07T09:22:51.166Z,99.90
2018-08-07T09:25:19.967Z,99.90
2018-08-07T09:27:47.999Z,99.90
2018-08-07T09:30:18.386Z,99.90
2018-08-07T09:32:47.814Z,99.90
2018-08-07T09:35:16.599Z,99.90
2018-08-07T09:37:44.756Z,99.90
2018-08-07T09:40:15.314Z,99.90
2018-08-07T09:42:44.282Z,99.90
2018-08-07T09:45:14.969Z,99.90
2018-08-07T09:47:44.607Z,99.90
2018-08-07T09:50:13.869Z,99.90
2018-08-07T09:52:42.275Z,99.90
2018-08-07T09:55:10.602Z,99.90
2018-08-07T09:57:38.635Z,99.90
2018-08-07T10:00:11.812Z,99.90
2018-08-07T10:02:44.803Z,99.90
2018-08-07T10:05:12.943Z,99.90
2018-08-07T10:07:41.000Z,99.90
2018-08-07T10:10:09.034Z,99.90
2018-08-07T10:12:37.130Z,99.90
2018-08-07T10:15:05.198Z,99.90
2018-08-07T10:17:33.238Z,99.90
2018-08-07T10:20:01.367Z,99.90
2018-08-07T10:22:29.388Z,99.90
2018-08-07T10:24:57.447Z,99.90
2018-08-07T10:27:25.503Z,99.90
2018-08-07T10:29:53.582Z,99.90
2018-08-07T10:32:21.606Z,99.90
2018-08-07T10:34:49.735Z,99.90
2018-08-07T10:37:17.874Z,99.90
2018-08-07T10:42:13.818Z,99.90
2018-08-07T10:44:41.960Z,99.90
2018-08-07T10:47:10.015Z,99.90
2018-08-07T10:49:38.039Z,99.90
2018-08-07T10:52:06.069Z,99.90
2018-08-07T10:54:34.142Z,99.90
2018-08-07T10:57:02.206Z,99.90
2018-08-07T10:59:30.334Z,99.90
2018-08-07T11:01:58.358Z,99.90
2018-08-07T11:04:26.373Z,99.90
2018-08-07T11:06:54.515Z,99.90
2018-08-07T11:09:22.626Z,99.90
2018-08-07T11:11:50.655Z,99.90
2018-08-07T11:14:18.684Z,99.90
2018-08-07T11:16:46.694Z,99.90
2018-08-07T11:19:14.706Z,99.90
2018-08-07T11:21:42.752Z,99.90
2018-08-07T11:24:10.766Z,99.90
2018-08-07T11:26:38.792Z,99.90
2018-08-07T11:29:06.802Z,99.90
2018-08-07T11:31:34.827Z,99.90
2018-08-07T11:34:02.903Z,99.90
2018-08-07T11:36:30.947Z,99.90
2018-08-07T11:38:58.971Z,99.90
2018-08-07T11:41:53.838Z,99.90
2018-08-07T11:44:21.867Z,99.90
2018-08-07T11:46:49.934Z,99.90
2018-08-07T11:49:17.963Z,99.90
2018-08-07T11:51:45.986Z,99.90
2018-08-07T11:54:14.008Z,99.90
2018-08-07T11:56:42.028Z,99.90
2018-08-07T11:59:14.558Z,99.90
2018-08-07T12:01:42.672Z,99.90
2018-08-07T12:04:10.702Z,99.90
2018-08-07T12:06:38.715Z,99.90
2018-08-07T12:09:08.446Z,99.90
2018-08-07T12:11:36.703Z,99.90
2018-08-07T12:14:04.957Z,99.90
2018-08-07T12:16:32.974Z,99.90
2018-08-07T12:19:00.994Z,99.90
2018-08-07T12:21:29.062Z,99.90
2018-08-07T12:23:57.094Z,99.90
2018-08-07T12:26:25.115Z,99.90
2018-08-07T12:28:53.139Z,99.90
2018-08-07T12:31:21.170Z,99.90
2018-08-07T12:33:49.204Z,99.90
2018-08-07T12:36:17.242Z,99.90
2018-08-07T12:38:45.286Z,99.90
2018-08-07T12:41:13.372Z,99.90
2018-08-07T12:43:41.341Z,99.90
2018-08-07T12:46:09.385Z,99.90
2018-08-07T12:48:37.406Z,99.90
2018-08-07T12:51:05.438Z,99.90
2018-08-07T12:53:33.463Z,99.90
2018-08-07T12:56:01.487Z,99.90
2018-08-07T12:58:29.509Z,99.90
2018-08-07T13:00:57.558Z,99.90
2018-08-07T13:03:25.587Z,99.90
2018-08-07T13:05:53.598Z,99.90
2018-08-07T13:08:21.629Z,99.90
2018-08-07T13:10:49.653Z,99.90
2018-08-07T13:13:17.697Z,99.90
2018-08-07T13:15:45.735Z,99.90
2018-08-07T13:18:13.754Z,99.90
2018-08-07T13:20:41.780Z,99.90
2018-08-07T13:23:09.811Z,99.90
2018-08-07T13:28:18.810Z,99.90
2018-08-07T13:30:46.847Z,99.90
2018-08-07T13:33:14.879Z,99.90
2018-08-07T13:35:42.898Z,99.90
2018-08-07T13:38:10.918Z,99.90
2018-08-07T13:40:38.955Z,99.90
2018-08-07T13:43:06.988Z,99.90
2018-08-07T13:45:35.007Z,99.90
2018-08-07T13:48:03.047Z,99.90
2018-08-07T13:50:31.063Z,99.90
2018-08-07T13:52:59.090Z,99.90
2018-08-07T13:55:27.153Z,99.90
2018-08-07T13:57:55.254Z,99.90
2018-08-07T14:00:25.182Z,99.90
2018-08-07T14:02:53.954Z,99.90
2018-08-07T14:05:22.397Z,99.90
2018-08-07T14:07:51.399Z,99.90
2018-08-07T14:10:20.326Z,99.90
2018-08-07T14:12:48.425Z,99.90
2018-08-07T14:15:17.233Z,99.90
2018-08-07T14:17:45.646Z,99.90
2018-08-07T14:20:14.552Z,99.90
2018-08-07T14:22:42.624Z,99.90
2018-08-07T14:25:13.086Z,99.90
2018-08-07T14:27:41.115Z,99.90
2018-08-07T14:30:18.559Z,99.90
2018-08-07T14:32:46.795Z,99.90
2018-08-07T14:35:14.849Z,99.90
2018-08-07T14:37:43.907Z,99.90
2018-08-07T14:40:13.618Z,99.90
2018-08-07T14:42:43.011Z,99.90
2018-08-07T14:45:12.834Z,99.90
2018-08-07T14:47:41.373Z,99.90
2018-08-07T14:50:12.294Z,99.90
2018-08-07T14:52:40.710Z,99.90
2018-08-07T14:55:08.923Z,99.90
2018-08-07T14:57:36.954Z,99.90
2018-08-07T15:00:06.242Z,99.90
2018-08-07T15:02:34.262Z,99.90
2018-08-07T15:05:02.304Z,99.90
2018-08-07T15:07:33.009Z,99.90
2018-08-07T15:10:01.018Z,99.90
2018-08-07T15:12:29.206Z,99.90
2018-08-07T15:14:57.194Z,99.90
2018-08-07T15:17:25.250Z,99.90
2018-08-07T15:19:53.250Z,99.90
2018-08-07T15:22:21.279Z,99.90
2018-08-07T15:24:49.295Z,99.90
2018-08-07T15:27:17.306Z,99.90
2018-08-07T15:29:45.385Z,99.90
2018-08-07T15:32:13.394Z,99.90
2018-08-07T15:34:41.415Z,99.90
2018-08-07T15:37:09.433Z,99.90
2018-08-07T15:39:37.468Z,99.90
2018-08-07T15:42:05.494Z,99.90
2018-08-07T15:44:33.503Z,99.90
2018-08-07T15:47:01.519Z,99.90
2018-08-07T15:49:29.592Z,99.90
2018-08-07T15:51:57.598Z,99.90
2018-08-07T15:54:25.683Z,99.90
2018-08-07T15:56:53.788Z,99.90
2018-08-07T15:59:21.715Z,99.90
2018-08-07T16:01:49.737Z,99.90
2018-08-07T16:04:17.764Z,99.90
2018-08-07T16:06:45.847Z,99.90
2018-08-07T16:09:13.918Z,99.90
2018-08-07T16:11:41.886Z,99.90
2018-08-07T16:14:09.931Z,99.90
2018-08-07T16:16:37.988Z,99.90
2018-08-07T16:19:06.103Z,99.90
2018-08-07T16:21:34.126Z,99.90
2018-08-07T16:24:02.228Z,99.90
2018-08-07T16:26:30.508Z,99.90
2018-08-07T16:28:58.534Z,99.90
2018-08-07T16:31:26.586Z,99.90
2018-08-07T16:33:54.818Z,99.90
2018-08-07T16:36:22.826Z,99.90
2018-08-07T16:38:50.858Z,99.90
2018-08-07T16:41:18.879Z,99.90
2018-08-07T16:43:46.903Z,99.90
2018-08-07T16:46:14.930Z,99.90
2018-08-07T16:48:42.958Z,99.90
2018-08-07T16:51:10.966Z,99.90
2018-08-07T16:53:39.031Z,99.90
2018-08-07T16:56:07.063Z,99.90
2018-08-07T16:58:35.078Z,99.90
2018-08-07T17:01:03.187Z,99.90
2018-08-07T17:03:31.259Z,99.90
2018-08-07T17:05:59.410Z,99.90
2018-08-07T17:08:27.561Z,99.90
2018-08-07T17:10:55.743Z,99.90
2018-08-07T17:13:23.997Z,99.90
2018-08-07T17:15:52.040Z,99.90
2018-08-07T17:18:20.086Z,99.90
2018-08-07T17:20:48.210Z,99.90
2018-08-07T17:23:16.243Z,99.90
2018-08-07T17:25:45.394Z,99.90
2018-08-07T17:28:13.490Z,99.90
2018-08-07T17:30:41.631Z,99.90
2018-08-07T17:33:09.651Z,99.90
2018-08-07T17:35:37.731Z,99.90
2018-08-07T17:38:06.662Z,99.90
2018-08-07T17:40:34.789Z,99.90
2018-08-07T17:43:03.001Z,99.90
2018-08-07T17:45:31.026Z,99.90
2018-08-07T17:47:59.064Z,99.90
2018-08-07T17:50:27.171Z,99.90
2018-08-07T17:52:56.757Z,99.90
2018-08-07T17:55:24.789Z,99.90
2018-08-07T17:57:54.022Z,99.90
2018-08-07T18:00:23.133Z,99.90
2018-08-07T18:02:51.490Z,99.90
2018-08-07T18:05:19.547Z,99.90
2018-08-07T18:07:49.080Z,99.90
2018-08-07T18:10:18.817Z,99.90
2018-08-07T18:12:46.922Z,99.90
2018-08-07T18:15:16.139Z,99.90
2018-08-07T18:17:44.737Z,99.90
2018-08-07T18:20:14.648Z,99.90
2018-08-07T18:22:42.796Z,99.90
2018-08-07T18:25:11.307Z,99.90
2018-08-07T18:27:39.846Z,99.90
2018-08-07T18:30:13.710Z,99.90
2018-08-07T18:32:42.430Z,99.90
2018-08-07T18:35:16.163Z,99.90
2018-08-07T18:37:44.234Z,99.90
2018-08-07T18:40:12.272Z,99.90
2018-08-07T18:42:40.677Z,99.90
2018-08-07T18:45:10.688Z,99.90
2018-08-07T18:47:39.507Z,99.90
2018-08-07T18:50:09.170Z,99.90
2018-08-07T18:52:37.255Z,99.90
2018-08-07T18:55:07.190Z,99.90
2018-08-07T18:57:35.324Z,99.90
2018-08-07T19:00:03.688Z,99.90
2018-08-07T19:02:31.824Z,99.90
2018-08-07T19:04:59.894Z,99.90
2018-08-07T19:07:27.914Z,99.90
2018-08-07T19:09:55.943Z,99.90
2018-08-07T19:12:23.982Z,99.90
2018-08-07T19:14:52.018Z,99.90
2018-08-07T19:17:20.039Z,99.90
2018-08-07T19:19:48.151Z,99.90
2018-08-07T19:22:16.225Z,99.90
2018-08-07T19:24:44.376Z,99.90
2018-08-07T19:27:12.493Z,99.90
2018-08-07T19:29:40.626Z,99.90
2018-08-07T19:32:08.703Z,99.90
2018-08-07T19:34:36.922Z,99.90
2018-08-07T19:37:04.942Z,99.90
2018-08-07T19:39:32.962Z,99.90
2018-08-07T19:42:00.994Z,99.90
2018-08-07T19:44:29.131Z,99.90
2018-08-07T19:46:57.227Z,99.90
2018-08-07T19:49:25.268Z,99.90
2018-08-07T19:51:53.305Z,99.90
2018-08-07T19:54:22.826Z,99.90
2018-08-07T19:56:50.869Z,99.90
2018-08-07T19:59:18.903Z,99.90
2018-08-07T20:01:46.980Z,99.90
2018-08-07T20:04:14.986Z,99.90
2018-08-07T20:06:43.118Z,99.90
2018-08-07T20:09:11.511Z,99.90
2018-08-07T20:11:39.547Z,99.90
2018-08-07T20:14:07.599Z,99.90
2018-08-07T20:16:35.629Z,99.90
2018-08-07T20:19:03.840Z,99.90
2018-08-07T20:21:31.999Z,99.90
2018-08-07T20:24:00.179Z,99.90
2018-08-07T20:26:28.185Z,99.90
2018-08-07T20:28:56.202Z,99.90
2018-08-07T20:31:24.318Z,99.90
2018-08-07T20:33:52.358Z,99.90
2018-08-07T20:36:20.416Z,99.90
2018-08-07T20:38:48.467Z,99.90
2018-08-07T20:41:16.687Z,99.90
2018-08-07T20:43:48.493Z,99.90
2018-08-07T20:46:16.555Z,99.90
2018-08-07T20:48:44.647Z,99.90
2018-08-07T20:51:12.871Z,99.90
2018-08-07T20:53:40.908Z,99.90
2018-08-07T20:56:08.922Z,99.90
2018-08-07T20:58:36.950Z,99.90
2018-08-07T21:01:05.026Z,99.90
2018-08-07T21:03:33.142Z,99.90
2018-08-07T21:06:01.167Z,99.90
2018-08-07T21:08:29.216Z,99.90
2018-08-07T21:10:57.909Z,99.90
2018-08-07T21:13:25.933Z,99.90
2018-08-07T21:15:53.956Z,99.90
2018-08-07T21:18:22.072Z,99.90
2018-08-07T21:20:50.099Z,99.90
2018-08-07T21:23:18.138Z,99.90
2018-08-07T21:25:46.174Z,99.90
2018-08-07T21:28:14.174Z,99.90
2018-08-07T21:30:42.187Z,99.90
2018-08-07T21:33:10.202Z,99.90
2018-08-07T21:35:38.499Z,99.90
2018-08-07T21:38:06.705Z,99.90
2018-08-07T21:40:34.714Z,99.90
2018-08-07T21:43:02.740Z,99.90
2018-08-07T21:45:30.935Z,99.90
2018-08-07T21:47:59.230Z,99.90
2018-08-07T21:50:27.266Z,99.90
2018-08-07T21:52:55.538Z,99.90
2018-08-07T21:55:23.701Z,99.90
2018-08-07T21:57:52.240Z,99.90
2018-08-07T22:00:27.802Z,99.90
2018-08-07T22:02:55.854Z,99.90
2018-08-07T22:05:23.855Z,99.90
2018-08-07T22:07:51.869Z,99.90
2018-08-07T22:10:20.843Z,99.90
2018-08-07T22:12:48.895Z,99.90
2018-08-07T22:15:17.866Z,99.90
2018-08-07T22:17:45.982Z,99.90
2018-08-07T22:20:14.194Z,99.90
2018-08-07T22:22:42.258Z,99.90
2018-08-07T22:25:10.768Z,99.90
2018-08-07T22:27:38.830Z,99.90
2018-08-07T22:30:13.678Z,99.90
2018-08-07T22:32:41.703Z,99.90
2018-08-07T22:35:09.831Z,99.90
2018-08-07T22:37:38.313Z,99.90
2018-08-07T22:40:06.477Z,99.90
2018-08-07T22:42:35.027Z,99.90
2018-08-07T22:45:03.164Z,99.90
2018-08-07T22:47:31.186Z,99.90
2018-08-07T22:49:59.222Z,99.90
2018-08-07T22:52:27.285Z,99.90
2018-08-07T22:54:55.314Z,99.90
2018-08-07T22:57:23.327Z,99.90
2018-08-07T22:59:51.403Z,99.90
2018-08-07T23:02:19.414Z,99.90
2018-08-07T23:04:47.459Z,99.90
2018-08-07T23:07:15.486Z,99.90
2018-08-07T23:09:43.613Z,99.90
2018-08-07T23:12:11.642Z,99.90
2018-08-07T23:14:39.691Z,99.90
2018-08-07T23:17:07.728Z,99.90
2018-08-07T23:19:35.766Z,99.90
2018-08-07T23:22:04.071Z,99.90
2018-08-07T23:24:32.311Z,99.90
2018-08-07T23:27:00.366Z,99.90
2018-08-07T23:29:28.442Z,99.90
2018-08-07T23:31:56.450Z,99.90
2018-08-07T23:34:24.487Z,99.90
2018-08-07T23:36:52.505Z,99.90
2018-08-07T23:39:20.539Z,99.90
2018-08-07T23:41:48.581Z,99.90
2018-08-07T23:44:16.611Z,99.90
2018-08-07T23:46:45.018Z,99.90
2018-08-07T23:49:13.054Z,99.90
2018-08-07T23:51:41.058Z,99.90
2018-08-07T23:54:09.082Z,99.90
2018-08-07T23:56:37.102Z,99.90
2018-08-07T23:59:05.316Z,99.90
